sensor_id;sensor_type;location;lat;lon;timestamp;pressure;altitude;pressure_sealevel;temperature;humidity
70690;BME280;58267;51.156;17.044;2024-01-30T00:00:10;101874.71;;;5.10;36.34
70690;BME280;58267;51.156;17.044;2024-01-30T00:02:34;101873.53;;;5.34;35.99
70690;BME280;58267;51.156;17.044;2024-01-30T00:05:00;101874.30;;;5.93;35.52
70690;BME280;58267;51.156;17.044;2024-01-30T00:07:24;101872.64;;;5.57;35.73
70690;BME280;58267;51.156;17.044;2024-01-30T00:09:50;101874.07;;;5.42;35.48
70690;BME280;58267;51.156;17.044;2024-01-30T00:12:16;101873.55;;;5.49;35.42
70690;BME280;58267;51.156;17.044;2024-01-30T00:14:42;101872.68;;;5.69;35.31
70690;BME280;58267;51.156;17.044;2024-01-30T00:17:07;101876.32;;;5.99;35.35
70690;BME280;58267;51.156;17.044;2024-01-30T00:19:33;101878.84;;;5.61;35.48
70690;BME280;58267;51.156;17.044;2024-01-30T00:21:58;101885.87;;;5.83;35.21
70690;BME280;58267;51.156;17.044;2024-01-30T00:24:24;101883.06;;;5.88;35.07
70690;BME280;58267;51.156;17.044;2024-01-30T00:26:49;101878.66;;;5.96;34.92
70690;BME280;58267;51.156;17.044;2024-01-30T00:29:15;101878.97;;;6.01;34.96
70690;BME280;58267;51.156;17.044;2024-01-30T00:31:40;101882.11;;;6.05;34.96
70690;BME280;58267;51.156;17.044;2024-01-30T00:34:06;101882.03;;;5.82;35.00
70690;BME280;58267;51.156;17.044;2024-01-30T00:36:32;101881.70;;;5.77;34.99
70690;BME280;58267;51.156;17.044;2024-01-30T00:38:57;101882.56;;;6.04;34.96
70690;BME280;58267;51.156;17.044;2024-01-30T00:41:27;101878.51;;;6.28;34.58
70690;BME280;58267;51.156;17.044;2024-01-30T00:43:48;101880.72;;;6.14;34.66
70690;BME280;58267;51.156;17.044;2024-01-30T00:46:14;101880.46;;;5.92;34.79
70690;BME280;58267;51.156;17.044;2024-01-30T00:48:39;101880.38;;;6.14;34.64
70690;BME280;58267;51.156;17.044;2024-01-30T00:51:05;101880.89;;;5.90;34.87
70690;BME280;58267;51.156;17.044;2024-01-30T00:53:30;101876.96;;;5.85;34.96
70690;BME280;58267;51.156;17.044;2024-01-30T00:55:56;101880.88;;;5.77;34.95
70690;BME280;58267;51.156;17.044;2024-01-30T00:58:21;101880.45;;;6.05;34.85
70690;BME280;58267;51.156;17.044;2024-01-30T01:00:47;101883.64;;;5.72;35.12
70690;BME280;58267;51.156;17.044;2024-01-30T01:03:12;101882.70;;;5.39;35.29
70690;BME280;58267;51.156;17.044;2024-01-30T01:05:38;101884.11;;;5.54;35.35
70690;BME280;58267;51.156;17.044;2024-01-30T01:08:04;101882.30;;;5.63;35.47
70690;BME280;58267;51.156;17.044;2024-01-30T01:10:30;101884.49;;;5.45;35.68
70690;BME280;58267;51.156;17.044;2024-01-30T01:12:55;101885.75;;;5.50;35.77
70690;BME280;58267;51.156;17.044;2024-01-30T01:15:20;101887.84;;;4.94;35.92
70690;BME280;58267;51.156;17.044;2024-01-30T01:17:46;101887.39;;;4.91;36.22
70690;BME280;58267;51.156;17.044;2024-01-30T01:20:12;101888.98;;;5.41;36.16
70690;BME280;58267;51.156;17.044;2024-01-30T01:22:38;101883.95;;;5.22;36.14
70690;BME280;58267;51.156;17.044;2024-01-30T01:25:03;101882.97;;;5.16;36.20
70690;BME280;58267;51.156;17.044;2024-01-30T01:27:28;101879.80;;;4.75;36.37
70690;BME280;58267;51.156;17.044;2024-01-30T01:29:53;101875.44;;;5.05;36.33
70690;BME280;58267;51.156;17.044;2024-01-30T01:32:19;101872.40;;;5.24;36.39
70690;BME280;58267;51.156;17.044;2024-01-30T01:34:44;101875.58;;;4.95;36.48
70690;BME280;58267;51.156;17.044;2024-01-30T01:37:10;101874.44;;;5.17;36.45
70690;BME280;58267;51.156;17.044;2024-01-30T01:39:35;101873.89;;;5.10;36.50
70690;BME280;58267;51.156;17.044;2024-01-30T01:42:00;101874.07;;;4.89;36.53
70690;BME280;58267;51.156;17.044;2024-01-30T01:44:25;101872.57;;;4.52;36.72
70690;BME280;58267;51.156;17.044;2024-01-30T01:46:51;101873.52;;;4.81;37.03
70690;BME280;58267;51.156;17.044;2024-01-30T01:49:16;101873.24;;;4.84;36.82
70690;BME280;58267;51.156;17.044;2024-01-30T01:51:42;101874.77;;;4.75;37.17
70690;BME280;58267;51.156;17.044;2024-01-30T01:54:07;101875.29;;;4.83;36.44
70690;BME280;58267;51.156;17.044;2024-01-30T01:56:34;101872.54;;;4.64;36.47
70690;BME280;58267;51.156;17.044;2024-01-30T01:59:04;101871.15;;;4.49;36.71
70690;BME280;58267;51.156;17.044;2024-01-30T02:01:23;101867.07;;;4.68;37.05
70690;BME280;58267;51.156;17.044;2024-01-30T02:03:49;101865.81;;;4.87;36.77
70690;BME280;58267;51.156;17.044;2024-01-30T02:06:15;101866.12;;;4.79;36.89
70690;BME280;58267;51.156;17.044;2024-01-30T02:08:39;101865.03;;;4.79;36.99
70690;BME280;58267;51.156;17.044;2024-01-30T02:11:05;101862.76;;;4.48;36.83
70690;BME280;58267;51.156;17.044;2024-01-30T02:13:31;101857.47;;;4.56;36.51
70690;BME280;58267;51.156;17.044;2024-01-30T02:15:56;101857.68;;;4.40;36.85
70690;BME280;58267;51.156;17.044;2024-01-30T02:18:22;101856.95;;;4.37;36.79
70690;BME280;58267;51.156;17.044;2024-01-30T02:20:47;101859.23;;;4.43;36.69
70690;BME280;58267;51.156;17.044;2024-01-30T02:23:13;101857.49;;;4.18;36.89
70690;BME280;58267;51.156;17.044;2024-01-30T02:25:40;101855.67;;;4.15;37.35
70690;BME280;58267;51.156;17.044;2024-01-30T02:28:04;101856.43;;;4.09;37.61
70690;BME280;58267;51.156;17.044;2024-01-30T02:30:29;101858.26;;;4.41;37.52
70690;BME280;58267;51.156;17.044;2024-01-30T02:32:55;101858.38;;;4.17;37.66
70690;BME280;58267;51.156;17.044;2024-01-30T02:35:20;101853.27;;;4.18;37.44
70690;BME280;58267;51.156;17.044;2024-01-30T02:37:45;101852.16;;;4.25;37.36
70690;BME280;58267;51.156;17.044;2024-01-30T02:40:11;101853.08;;;4.13;37.66
70690;BME280;58267;51.156;17.044;2024-01-30T02:42:37;101852.60;;;4.15;37.74
70690;BME280;58267;51.156;17.044;2024-01-30T02:45:03;101856.50;;;4.02;37.72
70690;BME280;58267;51.156;17.044;2024-01-30T02:47:28;101861.19;;;4.21;37.71
70690;BME280;58267;51.156;17.044;2024-01-30T02:49:53;101865.55;;;4.07;37.72
70690;BME280;58267;51.156;17.044;2024-01-30T02:52:18;101862.02;;;4.28;37.55
70690;BME280;58267;51.156;17.044;2024-01-30T02:54:44;101860.46;;;4.13;37.86
70690;BME280;58267;51.156;17.044;2024-01-30T02:57:10;101864.51;;;4.07;37.67
70690;BME280;58267;51.156;17.044;2024-01-30T02:59:35;101862.24;;;3.87;37.82
70690;BME280;58267;51.156;17.044;2024-01-30T03:02:00;101862.60;;;3.96;37.72
70690;BME280;58267;51.156;17.044;2024-01-30T03:04:26;101856.61;;;4.20;37.88
70690;BME280;58267;51.156;17.044;2024-01-30T03:06:52;101859.23;;;3.85;38.28
70690;BME280;58267;51.156;17.044;2024-01-30T03:09:17;101859.88;;;3.58;38.87
70690;BME280;58267;51.156;17.044;2024-01-30T03:11:43;101860.24;;;4.05;38.41
70690;BME280;58267;51.156;17.044;2024-01-30T03:14:08;101857.71;;;3.81;38.38
70690;BME280;58267;51.156;17.044;2024-01-30T03:16:33;101866.61;;;3.47;38.90
70690;BME280;58267;51.156;17.044;2024-01-30T03:18:58;101866.00;;;3.26;38.52
70690;BME280;58267;51.156;17.044;2024-01-30T03:21:24;101857.32;;;3.92;38.59
70690;BME280;58267;51.156;17.044;2024-01-30T03:23:49;101859.89;;;3.93;38.52
70690;BME280;58267;51.156;17.044;2024-01-30T03:26:15;101850.71;;;4.01;38.63
70690;BME280;58267;51.156;17.044;2024-01-30T03:28:40;101851.79;;;3.78;38.81
70690;BME280;58267;51.156;17.044;2024-01-30T03:31:06;101846.20;;;3.94;39.03
70690;BME280;58267;51.156;17.044;2024-01-30T03:33:31;101843.98;;;3.88;38.68
70690;BME280;58267;51.156;17.044;2024-01-30T03:35:56;101838.84;;;4.00;38.39
70690;BME280;58267;51.156;17.044;2024-01-30T03:38:22;101844.59;;;4.00;38.52
70690;BME280;58267;51.156;17.044;2024-01-30T03:40:47;101838.58;;;3.67;38.73
70690;BME280;58267;51.156;17.044;2024-01-30T03:43:12;101836.30;;;3.93;38.41
70690;BME280;58267;51.156;17.044;2024-01-30T03:45:38;101833.06;;;3.55;38.53
70690;BME280;58267;51.156;17.044;2024-01-30T03:48:04;101831.70;;;3.78;38.73
70690;BME280;58267;51.156;17.044;2024-01-30T03:50:28;101839.65;;;3.53;38.65
70690;BME280;58267;51.156;17.044;2024-01-30T03:52:54;101837.05;;;3.82;38.95
70690;BME280;58267;51.156;17.044;2024-01-30T03:55:19;101831.95;;;3.67;38.48
70690;BME280;58267;51.156;17.044;2024-01-30T03:57:44;101830.61;;;3.48;38.44
70690;BME280;58267;51.156;17.044;2024-01-30T04:00:11;101838.32;;;3.53;38.90
70690;BME280;58267;51.156;17.044;2024-01-30T04:02:35;101847.34;;;3.67;39.07
70690;BME280;58267;51.156;17.044;2024-01-30T04:05:01;101848.85;;;3.74;38.88
70690;BME280;58267;51.156;17.044;2024-01-30T04:07:26;101841.30;;;3.46;38.95
70690;BME280;58267;51.156;17.044;2024-01-30T04:09:52;101838.30;;;3.71;38.86
70690;BME280;58267;51.156;17.044;2024-01-30T04:12:17;101838.12;;;3.63;39.48
70690;BME280;58267;51.156;17.044;2024-01-30T04:14:43;101840.12;;;3.20;39.30
70690;BME280;58267;51.156;17.044;2024-01-30T04:17:09;101842.19;;;3.33;39.16
70690;BME280;58267;51.156;17.044;2024-01-30T04:19:37;101836.75;;;3.49;38.91
70690;BME280;58267;51.156;17.044;2024-01-30T04:22:00;101835.74;;;3.74;38.87
70690;BME280;58267;51.156;17.044;2024-01-30T04:24:25;101835.33;;;3.71;38.79
70690;BME280;58267;51.156;17.044;2024-01-30T04:26:50;101840.74;;;3.32;38.80
70690;BME280;58267;51.156;17.044;2024-01-30T04:29:16;101843.51;;;3.31;39.30
70690;BME280;58267;51.156;17.044;2024-01-30T04:31:42;101840.16;;;3.60;39.36
70690;BME280;58267;51.156;17.044;2024-01-30T04:34:07;101839.11;;;3.62;39.03
70690;BME280;58267;51.156;17.044;2024-01-30T04:36:34;101842.71;;;3.52;39.14
70690;BME280;58267;51.156;17.044;2024-01-30T04:38:59;101837.82;;;3.72;39.04
70690;BME280;58267;51.156;17.044;2024-01-30T04:41:25;101845.63;;;3.22;39.58
70690;BME280;58267;51.156;17.044;2024-01-30T04:43:49;101849.48;;;3.34;39.64
70690;BME280;58267;51.156;17.044;2024-01-30T04:46:15;101839.35;;;3.65;39.08
70690;BME280;58267;51.156;17.044;2024-01-30T04:48:41;101838.90;;;3.68;39.10
70690;BME280;58267;51.156;17.044;2024-01-30T04:51:06;101844.33;;;3.39;39.56
70690;BME280;58267;51.156;17.044;2024-01-30T04:53:32;101850.05;;;3.46;39.56
70690;BME280;58267;51.156;17.044;2024-01-30T04:55:58;101846.77;;;3.32;38.79
70690;BME280;58267;51.156;17.044;2024-01-30T04:58:23;101852.12;;;3.40;38.77
70690;BME280;58267;51.156;17.044;2024-01-30T05:00:49;101850.24;;;3.26;39.20
70690;BME280;58267;51.156;17.044;2024-01-30T05:03:14;101856.52;;;3.27;39.74
70690;BME280;58267;51.156;17.044;2024-01-30T05:05:40;101849.41;;;3.48;39.44
70690;BME280;58267;51.156;17.044;2024-01-30T05:08:05;101849.48;;;3.42;39.62
70690;BME280;58267;51.156;17.044;2024-01-30T05:10:31;101847.61;;;3.39;39.49
70690;BME280;58267;51.156;17.044;2024-01-30T05:12:57;101853.28;;;3.17;39.57
70690;BME280;58267;51.156;17.044;2024-01-30T05:15:22;101853.33;;;3.25;39.44
70690;BME280;58267;51.156;17.044;2024-01-30T05:17:47;101851.57;;;3.30;39.47
70690;BME280;58267;51.156;17.044;2024-01-30T05:20:13;101848.08;;;2.95;40.02
70690;BME280;58267;51.156;17.044;2024-01-30T05:22:38;101848.55;;;3.07;39.98
70690;BME280;58267;51.156;17.044;2024-01-30T05:25:05;101845.28;;;2.92;39.91
70690;BME280;58267;51.156;17.044;2024-01-30T05:27:30;101845.98;;;3.01;40.05
70690;BME280;58267;51.156;17.044;2024-01-30T05:29:56;101848.15;;;2.93;39.48
70690;BME280;58267;51.156;17.044;2024-01-30T05:32:21;101847.89;;;2.84;39.39
70690;BME280;58267;51.156;17.044;2024-01-30T05:34:46;101849.20;;;2.49;39.52
70690;BME280;58267;51.156;17.044;2024-01-30T05:37:12;101851.57;;;2.96;40.09
70690;BME280;58267;51.156;17.044;2024-01-30T05:39:37;101847.48;;;2.74;39.82
70690;BME280;58267;51.156;17.044;2024-01-30T05:42:04;101845.31;;;2.86;39.77
70690;BME280;58267;51.156;17.044;2024-01-30T05:44:29;101849.26;;;2.90;39.51
70690;BME280;58267;51.156;17.044;2024-01-30T05:46:55;101850.53;;;3.01;39.49
70690;BME280;58267;51.156;17.044;2024-01-30T05:49:20;101856.07;;;2.96;39.59
70690;BME280;58267;51.156;17.044;2024-01-30T05:51:45;101855.47;;;3.14;39.71
70690;BME280;58267;51.156;17.044;2024-01-30T05:54:11;101856.39;;;3.05;39.75
70690;BME280;58267;51.156;17.044;2024-01-30T05:56:36;101854.44;;;3.15;39.39
70690;BME280;58267;51.156;17.044;2024-01-30T05:59:01;101855.36;;;3.09;39.34
70690;BME280;58267;51.156;17.044;2024-01-30T06:01:27;101853.13;;;3.03;39.55
70690;BME280;58267;51.156;17.044;2024-01-30T06:03:52;101857.88;;;3.48;39.52
70690;BME280;58267;51.156;17.044;2024-01-30T06:06:17;101867.04;;;2.96;39.63
70690;BME280;58267;51.156;17.044;2024-01-30T06:08:43;101863.49;;;3.06;39.23
70690;BME280;58267;51.156;17.044;2024-01-30T06:11:10;101863.11;;;2.96;39.34
70690;BME280;58267;51.156;17.044;2024-01-30T06:13:35;101858.32;;;2.66;39.89
70690;BME280;58267;51.156;17.044;2024-01-30T06:16:01;101858.04;;;2.77;39.54
70690;BME280;58267;51.156;17.044;2024-01-30T06:18:26;101859.04;;;2.71;39.26
70690;BME280;58267;51.156;17.044;2024-01-30T06:20:52;101856.22;;;2.82;39.27
70690;BME280;58267;51.156;17.044;2024-01-30T06:23:17;101859.65;;;2.61;39.20
70690;BME280;58267;51.156;17.044;2024-01-30T06:25:43;101860.81;;;2.67;39.56
70690;BME280;58267;51.156;17.044;2024-01-30T06:28:09;101856.51;;;2.29;39.75
70690;BME280;58267;51.156;17.044;2024-01-30T06:30:34;101857.94;;;2.89;39.75
70690;BME280;58267;51.156;17.044;2024-01-30T06:33:00;101857.82;;;3.02;39.96
70690;BME280;58267;51.156;17.044;2024-01-30T06:35:25;101858.94;;;2.49;38.92
70690;BME280;58267;51.156;17.044;2024-01-30T06:37:51;101860.41;;;2.66;39.38
70690;BME280;58267;51.156;17.044;2024-01-30T06:40:16;101861.83;;;2.61;39.44
70690;BME280;58267;51.156;17.044;2024-01-30T06:42:41;101861.84;;;2.36;39.36
70690;BME280;58267;51.156;17.044;2024-01-30T06:45:07;101859.18;;;2.78;39.53
70690;BME280;58267;51.156;17.044;2024-01-30T06:47:32;101862.33;;;2.89;39.82
70690;BME280;58267;51.156;17.044;2024-01-30T06:49:58;101860.60;;;3.06;39.97
70690;BME280;58267;51.156;17.044;2024-01-30T06:52:23;101860.17;;;2.69;39.84
70690;BME280;58267;51.156;17.044;2024-01-30T06:54:49;101860.12;;;3.00;39.66
70690;BME280;58267;51.156;17.044;2024-01-30T06:57:14;101859.10;;;2.82;39.47
70690;BME280;58267;51.156;17.044;2024-01-30T06:59:39;101860.12;;;2.71;39.81
70690;BME280;58267;51.156;17.044;2024-01-30T07:02:05;101858.19;;;2.77;39.70
70690;BME280;58267;51.156;17.044;2024-01-30T07:04:29;101856.54;;;3.07;40.04
70690;BME280;58267;51.156;17.044;2024-01-30T07:06:55;101857.37;;;3.53;39.64
70690;BME280;58267;51.156;17.044;2024-01-30T07:09:20;101860.86;;;3.31;39.33
70690;BME280;58267;51.156;17.044;2024-01-30T07:11:46;101860.20;;;3.59;38.97
70690;BME280;58267;51.156;17.044;2024-01-30T07:14:11;101857.97;;;3.70;38.71
70690;BME280;58267;51.156;17.044;2024-01-30T07:16:37;101848.82;;;4.06;38.55
70690;BME280;58267;51.156;17.044;2024-01-30T07:19:02;101852.63;;;4.15;38.67
70690;BME280;58267;51.156;17.044;2024-01-30T07:21:28;101851.67;;;4.09;38.57
70690;BME280;58267;51.156;17.044;2024-01-30T07:23:53;101854.39;;;4.65;38.29
70690;BME280;58267;51.156;17.044;2024-01-30T07:26:19;101859.73;;;4.38;38.19
70690;BME280;58267;51.156;17.044;2024-01-30T07:28:45;101858.91;;;4.39;38.20
70690;BME280;58267;51.156;17.044;2024-01-30T07:31:10;101863.76;;;4.35;38.22
70690;BME280;58267;51.156;17.044;2024-01-30T07:33:35;101867.58;;;4.46;38.05
70690;BME280;58267;51.156;17.044;2024-01-30T07:36:01;101868.81;;;4.87;37.94
70690;BME280;58267;51.156;17.044;2024-01-30T07:38:26;101867.30;;;4.89;37.71
70690;BME280;58267;51.156;17.044;2024-01-30T07:40:52;101867.94;;;5.02;37.55
70690;BME280;58267;51.156;17.044;2024-01-30T07:43:17;101873.45;;;5.01;37.63
70690;BME280;58267;51.156;17.044;2024-01-30T07:45:43;101877.70;;;5.31;37.33
70690;BME280;58267;51.156;17.044;2024-01-30T07:48:09;101876.46;;;5.39;37.30
70690;BME280;58267;51.156;17.044;2024-01-30T07:50:35;101870.13;;;5.40;36.90
70690;BME280;58267;51.156;17.044;2024-01-30T07:53:00;101868.13;;;6.00;36.66
70690;BME280;58267;51.156;17.044;2024-01-30T07:55:25;101862.89;;;5.67;36.48
70690;BME280;58267;51.156;17.044;2024-01-30T07:57:51;101863.21;;;5.68;36.46
70690;BME280;58267;51.156;17.044;2024-01-30T08:00:17;101867.27;;;6.17;36.38
70690;BME280;58267;51.156;17.044;2024-01-30T08:02:41;101867.25;;;5.84;36.37
70690;BME280;58267;51.156;17.044;2024-01-30T08:05:07;101868.08;;;5.98;36.26
70690;BME280;58267;51.156;17.044;2024-01-30T08:07:32;101870.50;;;6.08;36.24
70690;BME280;58267;51.156;17.044;2024-01-30T08:09:58;101866.30;;;6.29;36.13
70690;BME280;58267;51.156;17.044;2024-01-30T08:12:24;101863.34;;;6.01;36.12
70690;BME280;58267;51.156;17.044;2024-01-30T08:14:50;101860.34;;;6.39;35.91
70690;BME280;58267;51.156;17.044;2024-01-30T08:17:15;101861.69;;;6.59;35.72
70690;BME280;58267;51.156;17.044;2024-01-30T08:19:40;101854.56;;;6.59;35.45
70690;BME280;58267;51.156;17.044;2024-01-30T08:22:06;101852.17;;;6.73;35.27
70690;BME280;58267;51.156;17.044;2024-01-30T08:24:31;101853.89;;;6.75;35.29
70690;BME280;58267;51.156;17.044;2024-01-30T08:26:57;101852.49;;;6.88;35.16
70690;BME280;58267;51.156;17.044;2024-01-30T08:29:23;101849.94;;;7.04;34.94
70690;BME280;58267;51.156;17.044;2024-01-30T08:31:49;101854.19;;;7.20;34.79
70690;BME280;58267;51.156;17.044;2024-01-30T08:34:14;101852.77;;;7.04;34.78
70690;BME280;58267;51.156;17.044;2024-01-30T08:36:40;101849.43;;;7.23;34.56
70690;BME280;58267;51.156;17.044;2024-01-30T08:39:05;101849.84;;;7.23;34.26
70690;BME280;58267;51.156;17.044;2024-01-30T08:41:31;101848.32;;;7.38;34.00
70690;BME280;58267;51.156;17.044;2024-01-30T08:43:56;101851.99;;;7.77;33.90
70690;BME280;58267;51.156;17.044;2024-01-30T08:46:22;101846.99;;;7.85;33.71
70690;BME280;58267;51.156;17.044;2024-01-30T08:48:47;101846.48;;;7.75;33.43
70690;BME280;58267;51.156;17.044;2024-01-30T08:51:12;101846.84;;;7.53;33.43
70690;BME280;58267;51.156;17.044;2024-01-30T08:53:37;101849.37;;;7.60;33.50
70690;BME280;58267;51.156;17.044;2024-01-30T08:56:03;101845.82;;;7.27;33.58
70690;BME280;58267;51.156;17.044;2024-01-30T08:58:28;101847.83;;;7.69;33.16
70690;BME280;58267;51.156;17.044;2024-01-30T09:00:54;101847.12;;;8.02;32.75
70690;BME280;58267;51.156;17.044;2024-01-30T09:03:19;101844.27;;;8.36;32.55
70690;BME280;58267;51.156;17.044;2024-01-30T09:05:45;101840.21;;;8.41;32.16
70690;BME280;58267;51.156;17.044;2024-01-30T09:08:10;101839.64;;;8.67;32.11
70690;BME280;58267;51.156;17.044;2024-01-30T09:10:35;101843.99;;;8.90;32.06
70690;BME280;58267;51.156;17.044;2024-01-30T09:13:00;101842.22;;;8.84;31.71
70690;BME280;58267;51.156;17.044;2024-01-30T09:15:26;101836.85;;;9.09;31.32
70690;BME280;58267;51.156;17.044;2024-01-30T09:17:51;101833.61;;;9.33;31.11
70690;BME280;58267;51.156;17.044;2024-01-30T09:20:17;101832.97;;;9.08;30.70
70690;BME280;58267;51.156;17.044;2024-01-30T09:22:42;101832.46;;;9.26;30.67
70690;BME280;58267;51.156;17.044;2024-01-30T09:25:08;101828.00;;;9.48;30.47
70690;BME280;58267;51.156;17.044;2024-01-30T09:27:33;101830.18;;;9.40;30.54
70690;BME280;58267;51.156;17.044;2024-01-30T09:29:59;101831.01;;;8.94;30.63
70690;BME280;58267;51.156;17.044;2024-01-30T09:32:25;101827.71;;;9.38;30.34
70690;BME280;58267;51.156;17.044;2024-01-30T09:34:50;101828.51;;;9.85;30.14
70690;BME280;58267;51.156;17.044;2024-01-30T09:37:16;101824.06;;;9.34;30.00
70690;BME280;58267;51.156;17.044;2024-01-30T09:39:41;101826.00;;;9.38;29.95
70690;BME280;58267;51.156;17.044;2024-01-30T09:42:15;101823.39;;;9.68;30.01
70690;BME280;58267;51.156;17.044;2024-01-30T09:44:35;101818.81;;;9.50;29.59
70690;BME280;58267;51.156;17.044;2024-01-30T09:46:58;101814.89;;;9.61;29.38
70690;BME280;58267;51.156;17.044;2024-01-30T09:49:24;101815.42;;;9.90;29.11
70690;BME280;58267;51.156;17.044;2024-01-30T09:51:50;101815.48;;;9.87;29.21
70690;BME280;58267;51.156;17.044;2024-01-30T09:54:14;101807.61;;;9.96;28.78
70690;BME280;58267;51.156;17.044;2024-01-30T09:56:40;101805.75;;;10.09;28.81
70690;BME280;58267;51.156;17.044;2024-01-30T09:59:06;101807.58;;;10.12;28.64
70690;BME280;58267;51.156;17.044;2024-01-30T10:01:32;101804.96;;;9.91;28.75
70690;BME280;58267;51.156;17.044;2024-01-30T10:03:57;101803.61;;;10.02;28.17
70690;BME280;58267;51.156;17.044;2024-01-30T10:06:25;101799.98;;;9.87;28.39
70690;BME280;58267;51.156;17.044;2024-01-30T10:08:48;101797.19;;;9.20;28.80
70690;BME280;58267;51.156;17.044;2024-01-30T10:11:14;101795.79;;;10.18;28.64
70690;BME280;58267;51.156;17.044;2024-01-30T10:13:39;101789.97;;;10.11;28.37
70690;BME280;58267;51.156;17.044;2024-01-30T10:16:05;101785.80;;;10.43;28.28
70690;BME280;58267;51.156;17.044;2024-01-30T10:18:30;101785.32;;;10.30;27.89
70690;BME280;58267;51.156;17.044;2024-01-30T10:20:56;101782.79;;;10.55;27.84
70690;BME280;58267;51.156;17.044;2024-01-30T10:23:22;101780.21;;;10.40;27.92
70690;BME280;58267;51.156;17.044;2024-01-30T10:25:47;101780.09;;;10.70;27.74
70690;BME280;58267;51.156;17.044;2024-01-30T10:28:12;101783.75;;;10.88;27.64
70690;BME280;58267;51.156;17.044;2024-01-30T10:30:38;101782.96;;;11.04;27.19
70690;BME280;58267;51.156;17.044;2024-01-30T10:33:04;101779.23;;;11.19;26.96
70690;BME280;58267;51.156;17.044;2024-01-30T10:35:29;101780.21;;;11.20;26.92
70690;BME280;58267;51.156;17.044;2024-01-30T10:37:57;101781.84;;;11.01;27.00
70690;BME280;58267;51.156;17.044;2024-01-30T10:40:22;101779.36;;;11.33;26.89
70690;BME280;58267;51.156;17.044;2024-01-30T10:42:45;101778.16;;;11.29;27.18
70690;BME280;58267;51.156;17.044;2024-01-30T10:45:11;101777.03;;;11.21;27.24
70690;BME280;58267;51.156;17.044;2024-01-30T10:47:36;101769.73;;;11.42;26.88
70690;BME280;58267;51.156;17.044;2024-01-30T10:50:02;101762.08;;;11.71;26.89
70690;BME280;58267;51.156;17.044;2024-01-30T10:52:29;101758.73;;;10.90;27.03
70690;BME280;58267;51.156;17.044;2024-01-30T10:54:54;101755.54;;;11.24;26.90
70690;BME280;58267;51.156;17.044;2024-01-30T10:57:18;101749.73;;;10.99;26.37
70690;BME280;58267;51.156;17.044;2024-01-30T10:59:44;101749.71;;;10.65;26.76
70690;BME280;58267;51.156;17.044;2024-01-30T11:02:10;101748.90;;;11.26;26.42
70690;BME280;58267;51.156;17.044;2024-01-30T11:04:38;101741.16;;;11.42;26.15
70690;BME280;58267;51.156;17.044;2024-01-30T11:07:00;101740.41;;;11.43;25.83
70690;BME280;58267;51.156;17.044;2024-01-30T11:09:25;101741.57;;;11.50;25.82
70690;BME280;58267;51.156;17.044;2024-01-30T11:11:51;101741.02;;;11.67;25.60
70690;BME280;58267;51.156;17.044;2024-01-30T11:14:16;101727.49;;;11.98;25.81
70690;BME280;58267;51.156;17.044;2024-01-30T11:16:43;101730.98;;;12.18;25.82
70690;BME280;58267;51.156;17.044;2024-01-30T11:19:11;101730.70;;;12.29;25.75
70690;BME280;58267;51.156;17.044;2024-01-30T11:21:32;101725.82;;;12.01;25.71
70690;BME280;58267;51.156;17.044;2024-01-30T11:23:57;101723.05;;;12.24;25.65
70690;BME280;58267;51.156;17.044;2024-01-30T11:26:27;101717.60;;;11.97;25.39
70690;BME280;58267;51.156;17.044;2024-01-30T11:28:53;101713.91;;;12.34;25.25
70690;BME280;58267;51.156;17.044;2024-01-30T11:31:18;101714.76;;;12.36;25.31
70690;BME280;58267;51.156;17.044;2024-01-30T11:33:39;101710.50;;;12.33;24.50
70690;BME280;58267;51.156;17.044;2024-01-30T11:36:05;101708.06;;;12.26;24.56
70690;BME280;58267;51.156;17.044;2024-01-30T11:38:30;101705.47;;;12.47;24.75
70690;BME280;58267;51.156;17.044;2024-01-30T11:40:56;101701.73;;;12.93;24.50
70690;BME280;58267;51.156;17.044;2024-01-30T11:43:20;101701.56;;;12.76;24.29
70690;BME280;58267;51.156;17.044;2024-01-30T11:45:46;101696.36;;;12.83;24.42
70690;BME280;58267;51.156;17.044;2024-01-30T11:48:12;101695.31;;;12.71;24.52
70690;BME280;58267;51.156;17.044;2024-01-30T11:50:38;101692.95;;;12.42;24.94
70690;BME280;58267;51.156;17.044;2024-01-30T11:53:03;101686.47;;;11.89;25.12
70690;BME280;58267;51.156;17.044;2024-01-30T11:55:29;101686.12;;;11.94;25.07
70690;BME280;58267;51.156;17.044;2024-01-30T11:57:55;101681.65;;;12.32;25.12
70690;BME280;58267;51.156;17.044;2024-01-30T12:00:19;101675.19;;;12.32;24.94
70690;BME280;58267;51.156;17.044;2024-01-30T12:02:49;101673.16;;;12.66;24.82
70690;BME280;58267;51.156;17.044;2024-01-30T12:05:10;101673.37;;;13.07;24.78
70690;BME280;58267;51.156;17.044;2024-01-30T12:07:36;101666.71;;;13.10;24.79
70690;BME280;58267;51.156;17.044;2024-01-30T12:10:01;101665.16;;;13.49;24.71
70690;BME280;58267;51.156;17.044;2024-01-30T12:12:27;101663.50;;;13.54;24.50
70690;BME280;58267;51.156;17.044;2024-01-30T12:14:51;101664.00;;;13.37;24.21
70690;BME280;58267;51.156;17.044;2024-01-30T12:17:23;101664.57;;;13.32;24.23
70690;BME280;58267;51.156;17.044;2024-01-30T12:19:42;101662.73;;;13.45;24.05
70690;BME280;58267;51.156;17.044;2024-01-30T12:22:11;101661.75;;;13.46;24.07
70690;BME280;58267;51.156;17.044;2024-01-30T12:24:33;101658.94;;;13.65;24.00
70690;BME280;58267;51.156;17.044;2024-01-30T12:26:59;101655.29;;;13.49;23.72
70690;BME280;58267;51.156;17.044;2024-01-30T12:29:24;101652.09;;;13.35;23.72
70690;BME280;58267;51.156;17.044;2024-01-30T12:31:53;101647.19;;;12.95;24.32
70690;BME280;58267;51.156;17.044;2024-01-30T12:34:14;101640.38;;;13.09;24.35
70690;BME280;58267;51.156;17.044;2024-01-30T12:36:40;101636.01;;;13.05;24.09